createdAt,value
2022-11-11T00:00:32.938Z,101462.94
2022-11-11T00:02:49.550Z,101454.84
2022-11-11T00:04:51.666Z,101454.03
2022-11-11T00:06:54.169Z,101454.28
2022-11-11T00:08:56.224Z,101457.31
2022-11-11T00:11:24.094Z,101448.09
2022-11-11T00:13:26.577Z,101461.28
2022-11-11T00:15:29.595Z,101454.66
2022-11-11T00:17:50.167Z,101457.97
2022-11-11T00:20:11.007Z,101454.69
2022-11-11T00:22:39.845Z,101469.53
2022-11-11T00:25:00.395Z,101461.88
2022-11-11T00:27:03.540Z,101465.69
2022-11-11T00:29:05.371Z,101469.00
2022-11-11T00:31:09.835Z,101465.44
2022-11-11T00:33:12.568Z,101462.69
2022-11-11T00:35:33.427Z,101451.09
2022-11-11T00:37:35.944Z,101456.81
2022-11-11T00:39:38.273Z,101454.38
2022-11-11T00:41:40.238Z,101454.94
2022-11-11T00:43:42.979Z,101461.88
2022-11-11T00:45:45.167Z,101454.75
2022-11-11T00:48:05.616Z,101443.63
2022-11-11T00:50:30.659Z,101451.09
2022-11-11T00:52:33.111Z,101464.09
2022-11-11T00:54:35.093Z,101451.50
2022-11-11T00:56:37.730Z,101458.94
2022-11-11T00:58:39.943Z,101470.38
2022-11-11T01:00:41.797Z,101461.16
2022-11-11T01:02:43.734Z,101466.19
2022-11-11T01:04:46.011Z,101465.78
2022-11-11T01:06:47.819Z,101458.81
2022-11-11T01:08:49.735Z,101451.97
2022-11-11T01:10:52.123Z,101455.50
2022-11-11T01:13:12.381Z,101461.97
2022-11-11T01:15:14.784Z,101464.41
2022-11-11T01:17:17.012Z,101459.94
2022-11-11T01:19:18.917Z,101442.91
2022-11-11T01:21:23.318Z,101450.50
2022-11-11T01:23:25.622Z,101447.41
2022-11-11T01:25:27.479Z,101457.72
2022-11-11T01:27:29.347Z,101459.69
2022-11-11T01:29:31.567Z,101451.41
2022-11-11T01:31:33.468Z,101445.59
2022-11-11T01:33:36.202Z,101454.84
2022-11-11T01:35:40.213Z,101446.81
2022-11-11T01:37:42.256Z,101455.00
2022-11-11T01:39:44.165Z,101451.97
2022-11-11T01:41:46.303Z,101444.50
2022-11-11T01:43:48.421Z,101450.19
2022-11-11T01:46:00.177Z,101445.25
2022-11-11T01:48:26.445Z,101437.28
2022-11-11T01:50:30.513Z,101430.09
2022-11-11T01:52:40.039Z,101432.72
2022-11-11T01:54:54.527Z,101439.78
2022-11-11T01:57:02.783Z,101432.03
2022-11-11T01:59:11.420Z,101422.41
2022-11-11T02:01:13.809Z,101425.75
2022-11-11T02:03:19.027Z,101423.31
2022-11-11T02:05:41.261Z,101424.06
2022-11-11T02:07:43.741Z,101419.66
2022-11-11T02:09:47.758Z,101418.31
2022-11-11T02:12:09.928Z,101421.66
2022-11-11T02:14:33.034Z,101421.00
2022-11-11T02:16:35.190Z,101398.31
2022-11-11T02:18:37.176Z,101426.09
2022-11-11T02:20:43.499Z,101419.00
2022-11-11T02:22:54.040Z,101420.75
2022-11-11T02:24:57.125Z,101419.44
2022-11-11T02:27:01.919Z,101414.13
2022-11-11T02:29:09.196Z,101415.09
2022-11-11T02:31:11.100Z,101411.97
2022-11-11T02:33:13.303Z,101429.00
2022-11-11T02:35:31.590Z,101408.53
2022-11-11T02:37:33.549Z,101434.19
2022-11-11T02:40:02.465Z,101437.59
2022-11-11T02:42:10.431Z,101427.03
2022-11-11T02:44:12.301Z,101442.50
2022-11-11T02:46:14.641Z,101445.03
2022-11-11T02:48:16.673Z,101433.31
2022-11-11T02:50:18.791Z,101442.91
2022-11-11T02:52:21.429Z,101450.09
2022-11-11T02:54:23.469Z,101450.09
2022-11-11T02:56:44.591Z,101451.72
2022-11-11T02:58:46.998Z,101455.38
2022-11-11T03:00:48.850Z,101463.44
2022-11-11T03:02:50.957Z,101454.66
2022-11-11T03:04:54.931Z,101460.41
2022-11-11T03:06:56.983Z,101454.13
2022-11-11T03:08:59.070Z,101454.31
2022-11-11T03:11:01.429Z,101464.81
2022-11-11T03:13:03.626Z,101450.13
2022-11-11T03:15:06.291Z,101461.34
2022-11-11T03:17:27.379Z,101451.16
2022-11-11T03:19:29.708Z,101473.22
2022-11-11T03:23:53.688Z,101468.50
2022-11-11T03:25:58.277Z,101456.31
2022-11-11T03:28:00.263Z,101465.34
2022-11-11T03:30:02.400Z,101466.53
2022-11-11T03:32:04.669Z,101461.22
2022-11-11T03:34:18.620Z,101457.72
2022-11-11T03:36:20.925Z,101459.06
2022-11-11T03:38:25.362Z,101467.09
2022-11-11T03:40:27.536Z,101465.69
2022-11-11T03:42:29.679Z,101461.81
2022-11-11T03:44:31.505Z,101469.72
2022-11-11T03:46:33.359Z,101474.94
2022-11-11T03:48:35.760Z,101460.78
2022-11-11T03:50:38.076Z,101475.25
2022-11-11T03:52:46.129Z,101479.13
2022-11-11T03:54:48.435Z,101477.13
2022-11-11T03:56:50.194Z,101478.53
2022-11-11T03:58:52.020Z,101476.91
2022-11-11T04:00:55.691Z,101482.59
2022-11-11T04:03:40.344Z,101471.38
2022-11-11T04:06:00.699Z,101475.97
2022-11-11T04:08:21.718Z,101479.25
2022-11-11T04:10:23.756Z,101466.63
2022-11-11T04:12:26.979Z,101478.00
2022-11-11T04:14:47.590Z,101483.63
2022-11-11T04:16:49.658Z,101480.13
2022-11-11T04:19:29.730Z,101482.81
2022-11-11T04:21:43.810Z,101491.13
2022-11-11T04:23:45.603Z,101502.56
2022-11-11T04:25:50.034Z,101511.34
2022-11-11T04:28:12.206Z,101493.97
2022-11-11T04:30:14.060Z,101508.16
2022-11-11T04:32:35.911Z,101504.50
2022-11-11T04:34:38.083Z,101493.84
2022-11-11T04:36:39.876Z,101512.25
2022-11-11T04:39:00.468Z,101502.53
2022-11-11T04:41:05.610Z,101513.28
2022-11-11T04:43:07.384Z,101497.66
2022-11-11T04:45:30.698Z,101508.34
2022-11-11T04:47:32.818Z,101499.53
2022-11-11T04:49:34.603Z,101491.13
2022-11-11T04:51:54.835Z,101508.75
2022-11-11T04:53:57.096Z,101500.41
2022-11-11T04:56:17.130Z,101500.06
2022-11-11T04:58:21.632Z,101495.84
2022-11-11T05:00:28.933Z,101498.59
2022-11-11T05:02:51.820Z,101494.72
2022-11-11T05:04:53.604Z,101498.97
2022-11-11T05:07:14.344Z,101482.16
2022-11-11T05:09:16.138Z,101502.69
2022-11-11T05:11:19.008Z,101518.59
2022-11-11T05:13:39.687Z,101511.69
2022-11-11T05:16:02.155Z,101518.91
2022-11-11T05:18:22.712Z,101506.16
2022-11-11T05:20:43.469Z,101499.94
2022-11-11T05:22:45.314Z,101491.59
2022-11-11T05:25:05.670Z,101482.41
2022-11-11T05:27:08.190Z,101473.84
2022-11-11T05:29:09.991Z,101484.16
2022-11-11T05:31:11.778Z,101480.47
2022-11-11T05:33:13.989Z,101485.97
2022-11-11T05:35:16.403Z,101492.34
2022-11-11T05:37:18.879Z,101495.31
2022-11-11T05:39:21.002Z,101492.56
2022-11-11T05:41:22.824Z,101485.47
2022-11-11T05:43:24.914Z,101491.28
2022-11-11T05:45:27.318Z,101480.25
2022-11-11T05:47:29.209Z,101495.63
2022-11-11T05:49:31.063Z,101479.19
2022-11-11T05:51:36.766Z,101492.63
2022-11-11T05:53:40.847Z,101489.19
2022-11-11T05:55:42.631Z,101496.03
2022-11-11T05:57:45.048Z,101504.94
2022-11-11T05:59:48.413Z,101492.47
2022-11-11T06:01:50.472Z,101499.31
2022-11-11T06:03:52.655Z,101495.81
2022-11-11T06:05:54.619Z,101491.78
2022-11-11T06:07:56.414Z,101497.22
2022-11-11T06:10:18.815Z,101484.09
2022-11-11T06:12:20.967Z,101492.66
2022-11-11T06:14:22.872Z,101492.53
2022-11-11T06:16:25.067Z,101483.50
2022-11-11T06:18:30.897Z,101486.56
2022-11-11T06:20:35.451Z,101487.81
2022-11-11T06:22:56.191Z,101489.97
2022-11-11T06:25:18.310Z,101496.84
2022-11-11T06:27:20.099Z,101482.72
2022-11-11T06:29:22.313Z,101498.78
2022-11-11T06:31:26.227Z,101508.53
2022-11-11T06:33:28.353Z,101497.19
2022-11-11T06:35:30.762Z,101495.75
2022-11-11T06:37:32.708Z,101512.03
2022-11-11T06:39:37.440Z,101500.72
2022-11-11T06:41:39.668Z,101502.59
2022-11-11T06:43:42.784Z,101492.16
2022-11-11T06:45:45.411Z,101506.81
2022-11-11T06:47:47.600Z,101472.91
2022-11-11T06:49:49.428Z,101522.34
2022-11-11T06:51:51.391Z,101522.69
2022-11-11T06:53:53.644Z,101510.63
2022-11-11T06:55:55.876Z,101514.22
2022-11-11T06:58:05.353Z,101518.47
2022-11-11T07:00:08.297Z,101510.91
2022-11-11T07:02:13.625Z,101514.59
2022-11-11T07:04:15.440Z,101512.97
2022-11-11T07:06:17.607Z,101506.81
2022-11-11T07:08:19.510Z,101510.59
2022-11-11T07:10:22.204Z,101501.50
2022-11-11T07:12:24.364Z,101505.06
2022-11-11T07:14:27.512Z,101503.00
2022-11-11T07:16:29.537Z,101510.81
2022-11-11T07:18:31.730Z,101511.63
2022-11-11T07:20:34.091Z,101509.50
2022-11-11T07:22:38.237Z,101501.06
2022-11-11T07:24:40.731Z,101497.50
2022-11-11T07:26:42.537Z,101487.06
2022-11-11T07:28:44.404Z,101485.91
2022-11-11T07:30:46.534Z,101491.44
2022-11-11T07:32:50.557Z,101493.47
2022-11-11T07:34:52.547Z,101488.06
2022-11-11T07:36:54.758Z,101481.41
2022-11-11T07:38:56.611Z,101489.19
2022-11-11T07:40:58.495Z,101483.06
2022-11-11T07:43:00.631Z,101487.06
2022-11-11T07:45:02.499Z,101475.88
2022-11-11T07:47:04.465Z,101484.09
2022-11-11T07:49:06.707Z,101476.00
2022-11-11T07:51:08.537Z,101480.50
2022-11-11T07:53:10.359Z,101479.34
2022-11-11T07:55:12.779Z,101473.31
2022-11-11T07:57:14.625Z,101475.66
2022-11-11T07:59:16.595Z,101486.50
2022-11-11T08:01:19.244Z,101494.13
2022-11-11T08:03:21.627Z,101491.03
2022-11-11T08:05:23.961Z,101493.19
2022-11-11T08:07:26.513Z,101497.34
2022-11-11T08:09:28.631Z,101499.38
2022-11-11T08:11:49.079Z,101503.38
2022-11-11T08:13:52.238Z,101512.66
2022-11-11T08:15:55.987Z,101498.31
2022-11-11T08:17:57.786Z,101515.94
2022-11-11T08:20:00.113Z,101501.03
2022-11-11T08:22:02.119Z,101507.22
2022-11-11T08:24:56.846Z,101495.16
2022-11-11T08:26:29.819Z,101489.31
2022-11-11T08:28:34.307Z,101505.72
2022-11-11T08:30:36.099Z,101505.78
2022-11-11T08:32:38.599Z,101498.97
2022-11-11T08:34:40.515Z,101509.44
2022-11-11T08:36:42.508Z,101519.06
2022-11-11T08:38:44.918Z,101524.94
2022-11-11T08:40:47.195Z,101511.84
2022-11-11T08:42:49.195Z,101513.16
2022-11-11T08:44:51.923Z,101503.06
2022-11-11T08:46:53.805Z,101507.00
2022-11-11T08:48:55.634Z,101515.81
2022-11-11T08:50:58.538Z,101506.00
2022-11-11T08:53:00.409Z,101504.25
2022-11-11T08:55:02.235Z,101513.69
2022-11-11T08:57:04.505Z,101522.25
2022-11-11T08:59:07.079Z,101517.72
2022-11-11T09:01:13.881Z,101522.84
2022-11-11T09:03:16.388Z,101501.81
2022-11-11T09:05:19.310Z,101516.44
2022-11-11T09:07:21.229Z,101520.66
2022-11-11T09:09:23.380Z,101517.56
2022-11-11T09:11:25.183Z,101528.81
2022-11-11T09:13:27.691Z,101522.47
2022-11-11T09:15:31.118Z,101515.66
2022-11-11T09:17:33.013Z,101519.56
2022-11-11T09:19:34.779Z,101530.16
2022-11-11T09:21:37.099Z,101523.44
2022-11-11T09:23:38.896Z,101521.53
2022-11-11T09:25:41.109Z,101507.25
2022-11-11T09:27:43.841Z,101509.88
2022-11-11T09:29:45.663Z,101506.78
2022-11-11T09:31:47.576Z,101500.84
2022-11-11T09:33:51.734Z,101503.50
2022-11-11T09:35:54.514Z,101501.22
2022-11-11T09:37:57.810Z,101498.94
2022-11-11T09:39:59.921Z,101490.25
2022-11-11T09:42:17.796Z,101505.97
2022-11-11T09:44:40.676Z,101508.41
2022-11-11T09:46:45.582Z,101504.69
2022-11-11T09:49:23.056Z,101513.00
2022-11-11T09:51:32.798Z,101505.00
2022-11-11T09:53:40.709Z,101503.69
2022-11-11T09:55:52.570Z,101503.63
2022-11-11T09:57:59.620Z,101494.53
2022-11-11T10:00:05.472Z,101490.78
2022-11-11T10:02:18.153Z,101497.63
2022-11-11T10:04:34.860Z,101493.38
2022-11-11T10:06:37.574Z,101477.38
2022-11-11T10:08:48.695Z,101476.53
2022-11-11T10:10:53.500Z,101481.09
2022-11-11T10:12:59.398Z,101482.09
2022-11-11T10:15:04.059Z,101474.88
2022-11-11T10:17:24.999Z,101489.44
2022-11-11T10:19:34.578Z,101484.53
2022-11-11T10:22:10.607Z,101476.84
2022-11-11T10:24:14.792Z,101466.41
2022-11-11T10:26:22.376Z,101468.16
2022-11-11T10:28:31.474Z,101465.84
2022-11-11T10:30:34.014Z,101463.56
2022-11-11T10:32:36.596Z,101447.22
2022-11-11T10:34:38.456Z,101463.25
2022-11-11T10:36:56.920Z,101470.16
2022-11-11T10:39:01.804Z,101477.19
2022-11-11T10:41:34.422Z,101464.31
2022-11-11T10:43:36.316Z,101461.53
2022-11-11T10:45:55.691Z,101476.94
2022-11-11T10:48:15.967Z,101476.75
2022-11-11T10:50:36.731Z,101473.00
2022-11-11T10:52:48.314Z,101479.22
2022-11-11T10:54:57.336Z,101477.25
2022-11-11T10:57:09.996Z,101476.91
2022-11-11T10:59:26.471Z,101460.72
2022-11-11T11:01:37.502Z,101457.31
2022-11-11T11:03:47.266Z,101448.50
2022-11-11T11:05:57.434Z,101456.97
2022-11-11T11:08:07.195Z,101460.72
2022-11-11T11:10:16.811Z,101456.66
2022-11-11T11:12:26.394Z,101449.31
2022-11-11T11:14:42.057Z,101442.75
2022-11-11T11:16:51.346Z,101448.00
2022-11-11T11:19:17.055Z,101448.28
2022-11-11T11:21:18.968Z,101449.44
2022-11-11T11:23:36.754Z,101442.44
2022-11-11T11:25:38.972Z,101428.53
2022-11-11T11:27:40.775Z,101432.94
2022-11-11T11:29:44.752Z,101418.88
2022-11-11T11:31:47.926Z,101424.59
2022-11-11T11:33:52.994Z,101424.59
2022-11-11T11:35:54.826Z,101418.41
2022-11-11T11:37:57.172Z,101422.31
2022-11-11T11:40:01.673Z,101421.31
2022-11-11T11:42:03.555Z,101416.59
2022-11-11T11:44:25.831Z,101430.00
2022-11-11T11:46:35.643Z,101440.47
2022-11-11T11:48:47.937Z,101438.66
2022-11-11T11:50:56.688Z,101436.88
2022-11-11T11:53:04.402Z,101449.97
2022-11-11T11:55:15.808Z,101464.69
2022-11-11T11:57:27.043Z,101454.69
2022-11-11T12:00:04.074Z,101437.34
2022-11-11T12:02:15.016Z,101447.50
2022-11-11T12:04:40.955Z,101434.75
2022-11-11T12:07:12.610Z,101425.09
2022-11-11T12:09:31.562Z,101428.34
2022-11-11T12:12:14.447Z,101429.34
2022-11-11T12:14:58.039Z,101433.28
2022-11-11T12:17:03.263Z,101438.19
2022-11-11T12:19:16.863Z,101444.88
2022-11-11T12:21:24.919Z,101425.75
2022-11-11T12:24:03.744Z,101447.97
2022-11-11T12:26:53.458Z,101445.88
2022-11-11T12:29:25.001Z,101445.72
2022-11-11T12:31:36.057Z,101448.81
2022-11-11T12:33:59.891Z,101444.72
2022-11-11T12:36:23.762Z,101454.66
2022-11-11T12:38:37.848Z,101448.31
2022-11-11T12:40:57.082Z,101451.56
2022-11-11T12:43:27.364Z,101445.34
2022-11-11T12:45:56.533Z,101456.16
2022-11-11T12:48:11.567Z,101468.91
2022-11-11T12:50:16.917Z,101475.28
2022-11-11T12:52:54.715Z,101463.84
2022-11-11T12:55:36.130Z,101462.19
2022-11-11T12:57:51.530Z,101461.84
2022-11-11T13:00:05.743Z,101439.66
2022-11-11T13:02:38.938Z,101442.91
2022-11-11T13:05:07.202Z,101434.91
2022-11-11T13:07:25.436Z,101435.72
2022-11-11T13:09:39.553Z,101421.31
2022-11-11T13:12:18.149Z,101438.31
2022-11-11T13:14:35.552Z,101426.22
2022-11-11T13:16:37.350Z,101419.50
2022-11-11T13:19:08.166Z,101433.41
2022-11-11T13:21:18.287Z,101424.03
2022-11-11T13:23:20.232Z,101390.53
2022-11-11T13:25:24.902Z,101425.72
2022-11-11T13:27:52.946Z,101412.84
2022-11-11T13:30:12.599Z,101418.88
2022-11-11T13:32:18.280Z,101404.81
2022-11-11T13:34:21.453Z,101411.50
2022-11-11T13:36:27.748Z,101409.84
2022-11-11T13:38:36.235Z,101420.75
2022-11-11T13:40:45.607Z,101425.69
2022-11-11T13:42:50.974Z,101419.66
2022-11-11T13:44:56.957Z,101423.72
2022-11-11T13:47:07.777Z,101429.75
2022-11-11T13:49:26.585Z,101432.03
2022-11-11T13:51:42.894Z,101437.34
2022-11-11T13:53:47.941Z,101418.03
2022-11-11T13:55:53.179Z,101425.38
2022-11-11T13:57:55.706Z,101419.66
2022-11-11T14:00:03.262Z,101432.72
2022-11-11T14:02:32.466Z,101431.41
2022-11-11T14:05:04.076Z,101437.03
2022-11-11T14:07:07.942Z,101426.56
2022-11-11T14:09:09.795Z,101433.13
2022-11-11T14:11:24.361Z,101434.75
2022-11-11T14:13:34.784Z,101437.34
2022-11-11T14:15:36.749Z,101447.66
2022-11-11T14:17:44.841Z,101437.84
2022-11-11T14:19:46.944Z,101441.53
2022-11-11T14:21:51.323Z,101416.09
2022-11-11T14:23:55.697Z,101420.66
2022-11-11T14:26:06.391Z,101435.56
2022-11-11T14:28:30.731Z,101443.88
2022-11-11T14:30:40.492Z,101439.03
2022-11-11T14:32:48.091Z,101450.06
2022-11-11T14:35:07.319Z,101441.91
2022-11-11T14:37:31.514Z,101448.25
2022-11-11T14:39:41.386Z,101453.50
2022-11-11T14:41:47.857Z,101450.50
2022-11-11T14:43:50.165Z,101452.81
2022-11-11T14:45:53.495Z,101459.16
2022-11-11T14:47:56.575Z,101456.16
2022-11-11T14:49:59.870Z,101445.72
2022-11-11T14:52:02.268Z,101452.03
2022-11-11T14:54:07.083Z,101437.41
2022-11-11T14:56:17.868Z,101439.22
2022-11-11T14:58:24.246Z,101451.56
2022-11-11T15:00:30.068Z,101451.25
2022-11-11T15:02:38.575Z,101436.91
2022-11-11T15:04:40.895Z,101437.41
2022-11-11T15:06:48.943Z,101450.91
2022-11-11T15:09:12.618Z,101447.97
2022-11-11T15:11:29.676Z,101455.41
2022-11-11T15:13:47.939Z,101468.34
2022-11-11T15:16:09.027Z,101465.38
2022-11-11T15:18:13.939Z,101470.78
2022-11-11T15:20:53.248Z,101466.53
2022-11-11T15:22:55.421Z,101471.09
2022-11-11T15:25:17.871Z,101454.13
2022-11-11T15:27:41.487Z,101469.88
2022-11-11T15:30:02.205Z,101463.03
2022-11-11T15:32:36.989Z,101459.03
2022-11-11T15:34:56.011Z,101467.34
2022-11-11T15:37:06.020Z,101466.97
2022-11-11T15:39:14.155Z,101449.66
2022-11-11T15:41:29.492Z,101467.47
2022-11-11T15:43:38.616Z,101491.16
2022-11-11T15:45:40.959Z,101495.25
2022-11-11T15:47:42.875Z,101494.50
2022-11-11T15:49:47.822Z,101504.97
2022-11-11T15:51:56.582Z,101499.75
2022-11-11T15:54:16.830Z,101498.72
2022-11-11T15:56:33.333Z,101498.19
2022-11-11T15:58:35.208Z,101487.50
2022-11-11T16:00:38.155Z,101492.53
2022-11-11T16:02:41.936Z,101491.59
2022-11-11T16:04:55.756Z,101498.19
2022-11-11T16:06:58.323Z,101494.75
2022-11-11T16:09:00.753Z,101502.63
2022-11-11T16:11:03.046Z,101502.03
2022-11-11T16:13:14.033Z,101504.50
2022-11-11T16:15:33.049Z,101493.66
2022-11-11T16:17:41.389Z,101499.78
2022-11-11T16:19:49.143Z,101497.50
2022-11-11T16:21:59.965Z,101494.03
2022-11-11T16:24:02.796Z,101485.22
2022-11-11T16:26:06.322Z,101503.66
2022-11-11T16:28:11.703Z,101491.75
2022-11-11T16:30:32.156Z,101479.66
2022-11-11T16:32:35.030Z,101487.66
2022-11-11T16:34:43.406Z,101490.28
2022-11-11T16:37:01.848Z,101490.81
2022-11-11T16:39:34.102Z,101482.38
2022-11-11T16:41:41.615Z,101476.94
2022-11-11T16:43:43.864Z,101474.69
2022-11-11T16:46:08.218Z,101482.19
2022-11-11T16:48:33.762Z,101481.06
2022-11-11T16:50:53.912Z,101480.97
2022-11-11T16:52:58.056Z,101485.47
2022-11-11T16:55:01.202Z,101482.69
2022-11-11T16:57:03.155Z,101470.22
2022-11-11T16:59:19.207Z,101484.66
2022-11-11T17:01:21.433Z,101484.19
2022-11-11T17:03:27.693Z,101465.09
2022-11-11T17:06:08.942Z,101492.56
2022-11-11T17:08:38.853Z,101494.41
2022-11-11T17:10:40.738Z,101489.78
2022-11-11T17:12:42.921Z,101513.00
2022-11-11T17:14:45.097Z,101502.22
2022-11-11T17:16:47.032Z,101525.16
2022-11-11T17:18:49.204Z,101504.66
2022-11-11T17:20:51.747Z,101524.72
2022-11-11T17:22:56.850Z,101524.72
2022-11-11T17:24:58.760Z,101520.44
2022-11-11T17:27:00.999Z,101534.78
2022-11-11T17:29:03.130Z,101529.50
2022-11-11T17:31:06.325Z,101528.59
2022-11-11T17:33:08.608Z,101518.84
2022-11-11T17:35:11.948Z,101534.09
2022-11-11T17:37:13.927Z,101520.19
2022-11-11T17:39:16.239Z,101519.78
2022-11-11T17:41:18.303Z,101530.09
2022-11-11T17:43:20.843Z,101522.53
2022-11-11T17:45:23.076Z,101523.38
2022-11-11T17:47:25.269Z,101528.78
2022-11-11T17:49:55.178Z,101521.94
2022-11-11T17:51:49.383Z,101524.25
2022-11-11T17:53:52.152Z,101524.97
2022-11-11T17:55:54.423Z,101518.41
2022-11-11T17:57:58.355Z,101512.88
2022-11-11T18:00:00.282Z,101522.28
2022-11-11T18:02:03.298Z,101518.16
2022-11-11T18:04:06.411Z,101528.59
2022-11-11T18:06:09.585Z,101470.03
2022-11-11T18:08:11.378Z,101521.53
2022-11-11T18:10:14.515Z,101500.25
2022-11-11T18:12:16.361Z,101521.44
2022-11-11T18:14:18.463Z,101515.78
2022-11-11T18:16:22.250Z,101507.59
2022-11-11T18:18:24.321Z,101504.06
2022-11-11T18:20:26.106Z,101491.25
2022-11-11T18:22:28.920Z,101483.09
2022-11-11T18:24:30.750Z,101504.50
2022-11-11T18:26:33.121Z,101490.69
2022-11-11T18:28:38.118Z,101490.69
2022-11-11T18:30:40.155Z,101503.28
2022-11-11T18:32:42.008Z,101501.63
2022-11-11T18:34:44.768Z,101504.31
2022-11-11T18:36:46.566Z,101517.97
2022-11-11T18:38:48.467Z,101519.22
2022-11-11T18:40:50.596Z,101516.25
2022-11-11T18:42:52.819Z,101531.34
2022-11-11T18:44:54.588Z,101520.69
2022-11-11T18:46:56.890Z,101530.09
2022-11-11T18:49:01.064Z,101524.91
2022-11-11T18:51:03.707Z,101519.88
2022-11-11T18:53:05.849Z,101528.34
2022-11-11T18:55:08.112Z,101532.34
2022-11-11T18:57:09.866Z,101533.78
2022-11-11T18:59:12.206Z,101536.06
2022-11-11T19:01:22.587Z,101532.78
2022-11-11T19:03:25.120Z,101536.34
2022-11-11T19:05:27.448Z,101533.88
2022-11-11T19:07:29.257Z,101525.66
2022-11-11T19:09:31.026Z,101541.44
2022-11-11T19:11:37.111Z,101532.50
2022-11-11T19:13:38.991Z,101549.13
2022-11-11T19:15:41.794Z,101547.38
2022-11-11T19:17:43.995Z,101542.03
2022-11-11T19:19:45.830Z,101540.31
2022-11-11T19:21:47.662Z,101556.50
2022-11-11T19:23:51.642Z,101560.06
2022-11-11T19:25:58.248Z,101557.03
2022-11-11T19:28:00.115Z,101557.75
2022-11-11T19:30:02.333Z,101560.75
2022-11-11T19:32:04.507Z,101574.16
2022-11-11T19:34:06.406Z,101574.50
2022-11-11T19:36:11.244Z,101577.66
2022-11-11T19:38:13.078Z,101586.81
2022-11-11T19:40:15.137Z,101578.19
2022-11-11T19:42:17.466Z,101576.56
2022-11-11T19:44:19.434Z,101588.94
2022-11-11T19:46:21.791Z,101582.38
2022-11-11T19:48:24.090Z,101583.09
2022-11-11T19:50:25.888Z,101581.66
2022-11-11T19:52:27.764Z,101585.25
2022-11-11T19:54:29.910Z,101583.91
2022-11-11T19:56:31.828Z,101595.63
2022-11-11T19:58:34.032Z,101597.25
2022-11-11T20:00:36.429Z,101575.41
2022-11-11T20:02:38.248Z,101585.44
2022-11-11T20:04:40.138Z,101589.88
2022-11-11T20:06:42.852Z,101572.84
2022-11-11T20:08:44.764Z,101562.78
2022-11-11T20:10:47.103Z,101578.78
2022-11-11T20:12:52.062Z,101579.41
2022-11-11T20:14:53.912Z,101567.28
2022-11-11T20:16:55.796Z,101579.63
2022-11-11T20:18:59.754Z,101566.69
2022-11-11T20:21:03.406Z,101557.03
2022-11-11T20:23:06.176Z,101565.03
2022-11-11T20:25:08.311Z,101571.41
2022-11-11T20:27:10.184Z,101544.47
2022-11-11T20:29:12.204Z,101582.47
2022-11-11T20:31:18.461Z,101580.84
2022-11-11T20:33:20.225Z,101583.59
2022-11-11T20:35:22.066Z,101576.13
2022-11-11T20:37:24.301Z,101581.78
2022-11-11T20:39:26.057Z,101585.88
2022-11-11T20:41:27.878Z,101582.09
2022-11-11T20:43:30.905Z,101599.50
2022-11-11T20:45:32.828Z,101573.03
2022-11-11T20:47:34.725Z,101600.53
2022-11-11T20:49:36.935Z,101607.03
2022-11-11T20:51:38.774Z,101589.03
2022-11-11T20:53:41.229Z,101602.00
2022-11-11T20:55:43.430Z,101603.41
2022-11-11T20:57:45.222Z,101598.19
2022-11-11T20:59:47.033Z,101595.81
2022-11-11T21:01:49.391Z,101607.50
2022-11-11T21:03:56.002Z,101611.91
2022-11-11T21:06:10.255Z,101594.47
2022-11-11T21:08:12.431Z,101611.69
2022-11-11T21:10:14.495Z,101614.06
2022-11-11T21:12:16.339Z,101603.53
2022-11-11T21:14:18.586Z,101591.13
2022-11-11T21:16:22.785Z,101605.56
2022-11-11T21:18:24.623Z,101601.34
2022-11-11T21:20:26.870Z,101617.38
2022-11-11T21:22:28.664Z,101603.09
2022-11-11T21:24:30.538Z,101605.88
2022-11-11T21:26:35.890Z,101608.22
2022-11-11T21:28:39.641Z,101607.31
2022-11-11T21:30:41.471Z,101609.97
2022-11-11T21:32:43.863Z,101604.13
2022-11-11T21:34:45.850Z,101608.84
2022-11-11T21:36:47.655Z,101609.88
2022-11-11T21:38:50.595Z,101601.03
2022-11-11T21:40:52.360Z,101604.31
2022-11-11T21:42:58.229Z,101593.84
2022-11-11T21:45:00.770Z,101611.81
2022-11-11T21:47:02.926Z,101609.13
2022-11-11T21:49:05.799Z,101613.66
2022-11-11T21:51:19.985Z,101615.91
2022-11-11T21:53:21.937Z,101614.25
2022-11-11T21:55:23.740Z,101617.16
2022-11-11T21:57:25.933Z,101610.47
2022-11-11T21:59:27.690Z,101626.47
2022-11-11T22:01:32.553Z,101614.63
2022-11-11T22:03:36.187Z,101616.41
2022-11-11T22:05:38.142Z,101613.88
2022-11-11T22:07:39.968Z,101620.72
2022-11-11T22:09:42.545Z,101624.75
2022-11-11T22:11:44.358Z,101613.25
2022-11-11T22:13:46.729Z,101627.38
2022-11-11T22:15:57.979Z,101603.19
2022-11-11T22:18:00.126Z,101618.56
2022-11-11T22:20:01.885Z,101619.28
2022-11-11T22:22:04.367Z,101625.03
2022-11-11T22:24:09.261Z,101629.25
2022-11-11T22:26:11.411Z,101614.97
2022-11-11T22:28:13.566Z,101625.47
2022-11-11T22:30:15.686Z,101619.94
2022-11-11T22:32:17.491Z,101610.47
2022-11-11T22:34:19.806Z,101631.91
2022-11-11T22:36:21.616Z,101629.56
2022-11-11T22:38:23.761Z,101619.91
2022-11-11T22:40:26.334Z,101627.50
2022-11-11T22:42:28.535Z,101630.47
2022-11-11T22:44:30.836Z,101624.91
2022-11-11T22:46:35.590Z,101627.34
2022-11-11T22:48:38.867Z,101617.13
2022-11-11T22:50:40.783Z,101621.81
2022-11-11T22:52:47.922Z,101616.72
2022-11-11T22:54:49.743Z,101613.63
2022-11-11T22:56:51.613Z,101626.09
2022-11-11T22:58:54.627Z,101631.84
2022-11-11T23:01:01.821Z,101609.09
2022-11-11T23:03:03.745Z,101626.81
2022-11-11T23:05:05.963Z,101628.06
2022-11-11T23:07:07.792Z,101624.84
2022-11-11T23:09:10.366Z,101630.03
2022-11-11T23:11:14.112Z,101624.72
2022-11-11T23:13:15.905Z,101614.25
2022-11-11T23:15:17.790Z,101616.81
2022-11-11T23:17:19.951Z,101610.44
2022-11-11T23:19:27.020Z,101624.75
2022-11-11T23:21:31.179Z,101624.22
2022-11-11T23:23:34.921Z,101629.44
2022-11-11T23:25:36.717Z,101615.50
2022-11-11T23:27:38.554Z,101615.50
2022-11-11T23:29:40.670Z,101620.00
2022-11-11T23:31:42.456Z,101612.00
2022-11-11T23:33:46.654Z,101618.56
2022-11-11T23:35:48.803Z,101621.84
2022-11-11T23:37:50.659Z,101610.59
2022-11-11T23:39:52.500Z,101610.59
2022-11-11T23:41:54.598Z,101633.34
2022-11-11T23:43:56.526Z,101633.34
2022-11-11T23:45:58.706Z,101622.47
2022-11-11T23:48:01.041Z,101613.56
2022-11-11T23:50:02.848Z,101632.66
2022-11-11T23:52:04.751Z,101626.72
2022-11-11T23:54:06.912Z,101634.59
2022-11-11T23:56:08.843Z,101644.84
2022-11-11T23:58:11.787Z,101640.66
